Time;durP1;ratioP1;P1;durP2;ratioP2;P2;SDS_P1;SDS_P2;PMS_P1;PMS_P2;Temp;Humidity;BMP_temperature;BMP_pressure;BME280_temperature;BME280_humidity;BME280_pressure;Samples;Min_cycle;Max_cycle;Signal;HPM_P1;HPM_P2
2021/06/14 00:01:56;;;;;;;2.22;1.75;;;12.40;99.90;;;;;;5008812;28;20082;-72
2021/06/14 00:04:22;;;;;;;3.63;1.70;;;12.40;99.90;;;;;;5010185;28;20113;-72
2021/06/14 00:06:47;;;;;;;1.40;1.30;;;12.50;99.90;;;;;;5009451;28;20109;-72
2021/06/14 00:09:17;;;;;;;4.65;1.95;;;12.50;99.90;;;;;;5010763;28;20102;-72
2021/06/14 00:11:42;;;;;;;1.95;1.70;;;12.40;99.90;;;;;;5009985;28;20074;-72
2021/06/14 00:14:08;;;;;;;10.70;3.10;;;12.40;99.90;;;;;;5010272;28;20098;-72
2021/06/14 00:16:35;;;;;;;2.30;1.63;;;12.30;99.90;;;;;;5009624;28;20075;-72
2021/06/14 00:19:03;;;;;;;2.20;1.70;;;12.40;99.90;;;;;;4961909;28;20651;-72
2021/06/14 00:21:29;;;;;;;1.90;1.58;;;12.40;99.90;;;;;;5005013;28;20141;-72
2021/06/14 00:23:54;;;;;;;2.38;1.55;;;12.50;99.90;;;;;;5009617;28;20094;-72
2021/06/14 00:26:20;;;;;;;3.45;2.63;;;12.20;99.90;;;;;;5025172;28;20086;-72
2021/06/14 00:28:45;;;;;;;2.38;1.60;;;12.10;99.90;;;;;;5010771;28;20446;-72
2021/06/14 00:31:11;;;;;;;2.28;1.48;;;12.20;99.90;;;;;;5009056;28;20489;-71
2021/06/14 00:33:39;;;;;;;2.47;1.70;;;12.10;99.90;;;;;;5008923;28;20165;-72
2021/06/14 00:36:06;;;;;;;3.70;1.60;;;12.30;99.90;;;;;;4991499;28;20074;-72
2021/06/14 00:38:32;;;;;;;3.15;1.45;;;12.10;99.90;;;;;;5013163;28;20089;-71
2021/06/14 00:40:58;;;;;;;2.60;1.60;;;12.00;99.90;;;;;;5009240;28;20458;-71
2021/06/14 00:43:24;;;;;;;4.53;2.30;;;11.80;99.90;;;;;;5009051;28;20082;-72
2021/06/14 00:45:52;;;;;;;3.30;1.63;;;12.00;99.90;;;;;;5007564;28;20156;-72
2021/06/14 00:48:18;;;;;;;1.42;1.33;;;12.10;99.90;;;;;;4990805;28;20090;-72
2021/06/14 00:50:48;;;;;;;2.83;1.77;;;12.10;99.90;;;;;;5010289;28;20078;-71
2021/06/14 00:53:21;;;;;;;4.55;2.08;;;12.10;99.90;;;;;;5000868;28;20092;-71
2021/06/14 00:55:48;;;;;;;2.95;1.42;;;12.10;99.90;;;;;;5014721;28;20086;-72
2021/06/14 00:58:14;;;;;;;5.07;1.73;;;11.90;99.90;;;;;;5007729;28;20501;-72
2021/06/14 01:00:40;;;;;;;3.95;1.63;;;11.90;99.90;;;;;;5007581;28;20075;-72
2021/06/14 01:03:07;;;;;;;2.47;1.70;;;11.90;99.90;;;;;;5008947;28;20078;-72
2021/06/14 01:05:50;;;;;;;2.22;1.52;;;12.10;99.90;;;;;;5008313;28;20090;-72
2021/06/14 01:08:15;;;;;;;2.10;1.77;;;11.90;99.90;;;;;;5008692;28;20558;-72
2021/06/14 01:10:43;;;;;;;4.00;1.73;;;11.70;99.90;;;;;;5012934;28;20122;-72
2021/06/14 01:13:22;;;;;;;2.28;1.88;;;11.80;99.90;;;;;;5008567;28;20121;-72
2021/06/14 01:15:59;;;;;;;1.92;1.58;;;11.80;99.90;;;;;;5007161;28;20549;-72
2021/06/14 01:18:47;;;;;;;3.38;1.45;;;12.00;99.90;;;;;;4991848;28;20085;-71
2021/06/14 01:21:21;;;;;;;3.25;1.77;;;11.90;99.90;;;;;;5006179;28;20082;-71
2021/06/14 01:24:11;;;;;;;2.03;1.58;;;11.90;99.90;;;;;;5008894;28;20109;-71
2021/06/14 01:26:46;;;;;;;3.67;1.45;;;11.90;99.90;;;;;;5019809;28;20764;-71
2021/06/14 01:29:12;;;;;;;;;;;11.80;99.90;;;;;;5008744;28;20458;-71
2021/06/14 01:31:38;;;;;;;4.15;1.50;;;11.90;99.90;;;;;;5008600;28;19962;-71
2021/06/14 01:34:06;;;;;;;1.77;1.63;;;11.80;99.90;;;;;;5008440;28;20095;-71
2021/06/14 01:36:34;;;;;;;2.97;1.80;;;11.70;99.90;;;;;;5007779;28;20066;-71
2021/06/14 01:39:03;;;;;;;3.78;1.70;;;11.80;99.90;;;;;;5010232;28;20082;-71
2021/06/14 01:41:31;;;;;;;4.25;2.05;;;11.70;99.90;;;;;;4989348;28;20074;-71
2021/06/14 01:43:58;;;;;;;3.13;1.58;;;11.60;99.90;;;;;;5015355;28;20099;-72
2021/06/14 01:46:28;;;;;;;2.35;1.50;;;11.70;99.90;;;;;;5006183;28;20139;-71
2021/06/14 01:48:55;;;;;;;2.90;1.92;;;11.50;99.90;;;;;;5019675;28;20114;-71
2021/06/14 01:51:28;;;;;;;2.20;1.60;;;11.50;99.90;;;;;;5018170;28;20090;-72
2021/06/14 01:54:04;;;;;;;2.15;1.60;;;11.50;99.90;;;;;;5018341;28;20078;-72
2021/06/14 01:56:37;;;;;;;2.40;1.92;;;11.50;99.90;;;;;;5017697;28;20131;-72
2021/06/14 01:59:05;;;;;;;1.90;1.60;;;11.50;99.90;;;;;;5011431;28;20612;-72
2021/06/14 02:01:31;;;;;;;2.65;1.67;;;11.50;99.90;;;;;;5012339;28;20079;-72
2021/06/14 02:03:59;;;;;;;3.08;2.03;;;11.40;99.90;;;;;;5012494;28;20714;-72
2021/06/14 02:06:28;;;;;;;4.03;2.00;;;11.50;99.90;;;;;;4993895;28;20149;-72
2021/06/14 02:08:54;;;;;;;4.18;1.90;;;11.40;99.90;;;;;;5011451;28;20098;-72
2021/06/14 02:11:21;;;;;;;3.28;1.52;;;11.40;99.90;;;;;;5011996;28;20086;-72
2021/06/14 02:13:47;;;;;;;2.85;1.92;;;11.30;99.90;;;;;;5011707;28;20084;-72
2021/06/14 02:16:15;;;;;;;2.80;1.48;;;11.30;99.90;;;;;;5021718;28;20082;-72
2021/06/14 02:18:40;;;;;;;3.65;1.75;;;11.40;99.90;;;;;;5011371;28;20129;-72
2021/06/14 02:21:06;;;;;;;3.00;1.63;;;11.30;99.90;;;;;;5010552;28;20475;-73
2021/06/14 02:23:32;;;;;;;4.22;1.80;;;11.30;99.90;;;;;;5011401;28;20125;-73
2021/06/14 02:25:57;;;;;;;2.88;1.63;;;11.30;99.90;;;;;;5019132;28;20129;-73
2021/06/14 02:28:23;;;;;;;4.20;1.77;;;11.10;99.90;;;;;;5020291;28;20125;-73
2021/06/14 02:30:48;;;;;;;3.08;1.75;;;11.20;99.90;;;;;;5009886;28;20085;-73
2021/06/14 02:33:14;;;;;;;4.13;2.10;;;11.30;99.90;;;;;;5011527;28;20080;-73
2021/06/14 02:35:40;;;;;;;2.40;2.00;;;11.10;99.90;;;;;;5010825;28;20174;-73
2021/06/14 02:38:07;;;;;;;3.45;2.05;;;11.10;99.90;;;;;;5010013;28;20566;-73
2021/06/14 02:40:34;;;;;;;1.90;1.67;;;11.00;99.90;;;;;;5011549;28;20564;-73
2021/06/14 02:43:06;;;;;;;2.17;1.70;;;11.00;99.90;;;;;;4993789;28;20085;-73
2021/06/14 02:45:32;;;;;;;3.33;1.90;;;11.10;99.90;;;;;;5016041;28;20574;-73
2021/06/14 02:47:58;;;;;;;3.50;1.80;;;11.00;99.90;;;;;;5009612;28;20082;-73
2021/06/14 02:50:26;;;;;;;1.70;1.60;;;11.10;99.90;;;;;;5015021;28;20100;-73
2021/06/14 02:52:53;;;;;;;2.97;2.05;;;11.00;99.90;;;;;;5017384;28;20556;-73
2021/06/14 02:55:25;;;;;;;3.90;1.90;;;11.00;99.90;;;;;;5015883;28;20098;-73
2021/06/14 02:57:53;;;;;;;2.20;1.50;;;11.00;99.90;;;;;;5010547;28;20132;-73
2021/06/14 03:00:22;;;;;;;2.72;1.70;;;10.90;99.90;;;;;;5022704;28;20070;-73
2021/06/14 03:02:48;;;;;;;3.65;1.88;;;10.90;99.90;;;;;;5012658;28;20100;-73
2021/06/14 03:05:15;;;;;;;2.17;1.95;;;10.90;99.90;;;;;;5011553;28;20090;-73
2021/06/14 03:07:41;;;;;;;3.72;1.80;;;10.80;99.90;;;;;;4997144;28;20109;-73
2021/06/14 03:10:08;;;;;;;3.25;1.88;;;11.00;99.90;;;;;;5011360;28;20541;-73
2021/06/14 03:12:33;;;;;;;4.10;1.98;;;10.90;99.90;;;;;;5010992;28;20136;-73
2021/06/14 03:15:03;;;;;;;3.28;2.20;;;10.90;99.90;;;;;;5014978;28;20110;-73
2021/06/14 03:17:29;;;;;;;2.78;1.73;;;10.90;99.90;;;;;;4972993;28;20078;-73
2021/06/14 03:19:56;;;;;;;3.40;2.60;;;11.00;99.90;;;;;;5001803;28;20082;-73
2021/06/14 03:22:22;;;;;;;2.83;1.98;;;10.90;99.90;;;;;;5011673;28;20102;-73
2021/06/14 03:24:48;;;;;;;2.40;2.20;;;10.90;99.90;;;;;;5008930;28;20136;-73
2021/06/14 03:27:15;;;;;;;4.05;2.30;;;10.90;99.90;;;;;;5030046;28;20160;-73
2021/06/14 03:29:43;;;;;;;5.25;3.40;;;10.90;99.90;;;;;;5012127;28;20120;-73
2021/06/14 03:32:09;;;;;;;3.97;2.42;;;10.80;99.90;;;;;;5029787;28;20077;-72
2021/06/14 03:34:36;;;;;;;3.58;2.65;;;10.90;99.90;;;;;;5019591;28;20094;-73
2021/06/14 03:37:03;;;;;;;4.65;2.30;;;11.00;99.90;;;;;;5009300;28;20074;-72
2021/06/14 03:39:29;;;;;;;3.72;2.25;;;11.10;99.90;;;;;;5010227;28;20081;-73
2021/06/14 03:41:55;;;;;;;4.25;2.15;;;11.10;99.90;;;;;;5009482;28;20090;-73
2021/06/14 03:44:21;;;;;;;2.20;1.92;;;11.20;99.90;;;;;;5016661;28;20082;-71
2021/06/14 03:46:48;;;;;;;2.65;2.42;;;11.10;99.90;;;;;;5020688;28;20082;-71
2021/06/14 03:49:13;;;;;;;2.85;2.20;;;11.20;99.90;;;;;;5014190;28;20109;-72
2021/06/14 03:51:39;;;;;;;2.70;2.33;;;11.20;99.90;;;;;;5010809;28;20074;-72
2021/06/14 03:54:05;;;;;;;2.30;2.10;;;11.20;99.90;;;;;;5040967;28;20090;-72
2021/06/14 03:56:33;;;;;;;2.88;1.90;;;11.20;99.90;;;;;;5013267;28;20208;-72
2021/06/14 03:59:00;;;;;;;3.85;2.40;;;11.20;99.90;;;;;;5010731;28;20086;-72
2021/06/14 04:01:26;;;;;;;3.90;1.73;;;11.30;99.90;;;;;;5009800;28;20109;-72
2021/06/14 04:06:24;;;;;;;3.55;2.38;;;11.40;99.90;;;;;;5011891;28;20085;-72
2021/06/14 04:08:49;;;;;;;3.92;1.95;;;11.40;99.90;;;;;;5029488;28;20086;-72
2021/06/14 04:11:15;;;;;;;3.30;2.20;;;11.50;99.90;;;;;;5012673;28;20074;-72
2021/06/14 04:13:40;;;;;;;2.35;1.90;;;11.40;99.90;;;;;;5016231;28;20088;-73
2021/06/14 04:16:06;;;;;;;2.15;1.70;;;11.60;99.90;;;;;;5015042;28;20164;-72
2021/06/14 04:18:31;;;;;;;3.42;2.47;;;11.60;99.90;;;;;;4966798;28;20090;-72
2021/06/14 04:20:57;;;;;;;4.05;2.22;;;11.60;99.90;;;;;;5013219;28;20181;-72
2021/06/14 04:23:23;;;;;;;2.30;2.10;;;11.50;99.90;;;;;;5008088;28;20121;-72
2021/06/14 04:25:48;;;;;;;2.35;2.05;;;11.70;99.90;;;;;;5009729;28;20101;-72
2021/06/14 04:28:14;;;;;;;3.45;2.30;;;11.90;99.90;;;;;;5009384;28;21063;-72
2021/06/14 04:30:39;;;;;;;3.47;2.10;;;12.10;99.90;;;;;;5019682;28;20566;-72
2021/06/14 04:33:05;;;;;;;2.13;1.92;;;12.10;99.90;;;;;;5010451;28;20074;-72
2021/06/14 04:35:31;;;;;;;5.20;2.75;;;12.30;99.90;;;;;;5011992;28;20091;-72
2021/06/14 04:37:56;;;;;;;3.97;1.98;;;12.20;99.90;;;;;;5009553;28;20454;-72
2021/06/14 04:40:22;;;;;;;5.57;2.42;;;12.20;99.90;;;;;;5011259;28;20093;-72
2021/06/14 04:42:48;;;;;;;4.35;2.33;;;12.30;99.90;;;;;;5010850;28;20454;-72
2021/06/14 04:45:14;;;;;;;4.88;2.45;;;12.40;99.90;;;;;;5011591;28;20094;-72
2021/06/14 04:47:40;;;;;;;3.50;2.53;;;12.50;99.90;;;;;;5008106;28;20096;-72
2021/06/14 04:50:06;;;;;;;5.00;2.13;;;12.60;99.90;;;;;;5011172;28;20094;-72
2021/06/14 04:52:32;;;;;;;5.45;2.17;;;12.70;99.90;;;;;;5022833;28;20526;-72
2021/06/14 04:54:57;;;;;;;4.80;2.30;;;12.70;99.90;;;;;;5010361;28;20108;-73
2021/06/14 04:57:24;;;;;;;3.63;2.35;;;12.90;99.90;;;;;;5027638;28;20066;-73
2021/06/14 04:59:50;;;;;;;5.90;2.05;;;13.00;99.90;;;;;;5011481;28;20078;-73
2021/06/14 05:02:16;;;;;;;7.90;3.00;;;13.10;99.90;;;;;;5027339;28;20086;-72
2021/06/14 05:04:41;;;;;;;4.35;2.80;;;13.20;99.90;;;;;;5011643;28;20094;-73
2021/06/14 05:07:07;;;;;;;4.95;2.63;;;13.20;99.90;;;;;;5009090;28;20644;-71
2021/06/14 05:09:33;;;;;;;3.55;2.38;;;13.20;99.90;;;;;;5018204;28;20079;-71
2021/06/14 05:11:58;;;;;;;5.35;2.58;;;13.40;99.90;;;;;;5020792;28;20157;-71
2021/06/14 05:14:24;;;;;;;5.72;2.80;;;13.50;99.90;;;;;;5022225;28;20102;-73
2021/06/14 05:16:49;;;;;;;5.47;3.00;;;13.70;99.90;;;;;;5020451;28;20124;-73
2021/06/14 05:19:15;;;;;;;6.07;3.15;;;13.80;99.90;;;;;;4984047;28;20438;-71
2021/06/14 05:21:40;;;;;;;5.88;4.03;;;13.80;99.90;;;;;;5014029;28;20078;-72
2021/06/14 05:24:06;;;;;;;4.68;2.50;;;13.80;99.90;;;;;;5017171;28;20097;-71
2021/06/14 05:26:32;;;;;;;8.20;3.15;;;13.80;99.90;;;;;;5015346;28;20464;-72
2021/06/14 05:28:58;;;;;;;7.22;2.97;;;13.90;99.90;;;;;;5013515;28;20124;-71
2021/06/14 05:31:23;;;;;;;3.70;2.35;;;14.00;99.90;;;;;;5012150;28;20074;-71
2021/06/14 05:33:49;;;;;;;6.15;3.50;;;14.20;99.90;;;;;;5018589;28;20098;-73
2021/06/14 05:36:14;;;;;;;6.22;2.80;;;14.30;99.90;;;;;;5023471;28;20078;-73
2021/06/14 05:38:40;;;;;;;4.30;2.70;;;14.30;99.90;;;;;;5014443;28;20081;-73
2021/06/14 05:41:06;;;;;;;5.63;2.72;;;14.30;99.90;;;;;;5001452;28;20078;-72
2021/06/14 05:43:31;;;;;;;5.40;2.80;;;14.40;99.90;;;;;;5022811;28;20617;-72
2021/06/14 05:45:57;;;;;;;7.45;3.30;;;14.40;99.90;;;;;;5018849;28;20173;-72
2021/06/14 05:48:23;;;;;;;3.78;2.45;;;14.50;99.90;;;;;;5014230;28;20098;-72
2021/06/14 05:50:48;;;;;;;4.43;2.83;;;14.60;99.90;;;;;;5011259;28;20150;-71
2021/06/14 05:53:14;;;;;;;6.05;3.03;;;14.70;99.90;;;;;;5022832;28;20101;-72
2021/06/14 05:55:40;;;;;;;4.47;2.70;;;14.80;99.90;;;;;;5014849;28;20460;-71
2021/06/14 05:58:06;;;;;;;5.22;2.65;;;14.90;99.90;;;;;;5020138;28;20140;-74
2021/06/14 06:00:31;;;;;;;4.18;2.40;;;15.00;99.90;;;;;;5017538;28;20746;-72
2021/06/14 06:02:57;;;;;;;3.60;2.47;;;15.00;99.90;;;;;;4995664;28;20110;-72
2021/06/14 06:05:23;;;;;;;8.75;2.80;;;15.10;99.90;;;;;;5011394;28;20101;-72
2021/06/14 06:07:48;;;;;;;6.47;2.83;;;15.30;99.90;;;;;;5020408;28;20078;-72
2021/06/14 06:10:14;;;;;;;6.00;2.72;;;15.40;99.90;;;;;;5015035;28;20079;-72
2021/06/14 06:12:40;;;;;;;5.07;2.63;;;15.40;99.90;;;;;;5012430;28;20079;-72
2021/06/14 06:15:07;;;;;;;5.68;3.15;;;15.50;99.90;;;;;;5014517;28;20097;-72
2021/06/14 06:17:33;;;;;;;3.33;2.00;;;15.60;99.90;;;;;;5013310;28;20128;-72
2021/06/14 06:19:59;;;;;;;8.88;3.00;;;15.70;99.90;;;;;;4994755;28;20526;-73
2021/06/14 06:22:25;;;;;;;4.50;2.67;;;15.90;99.90;;;;;;5012040;28;20553;-72
2021/06/14 06:24:51;;;;;;;4.40;2.63;;;15.80;99.90;;;;;;5012973;28;20235;-72
2021/06/14 06:27:17;;;;;;;6.70;3.30;;;15.90;99.90;;;;;;5018129;28;20240;-72
2021/06/14 06:29:43;;;;;;;6.80;2.58;;;15.90;99.90;;;;;;5002010;28;20090;-72
2021/06/14 06:32:09;;;;;;;3.53;2.40;;;16.00;99.90;;;;;;5006181;28;20113;-72
2021/06/14 06:34:34;;;;;;;5.30;3.17;;;16.10;99.90;;;;;;5000169;28;20097;-72
2021/06/14 06:37:00;;;;;;;5.22;2.85;;;16.10;99.90;;;;;;5014864;28;20500;-72
2021/06/14 06:39:25;;;;;;;4.57;2.40;;;16.20;99.90;;;;;;5003052;28;20137;-72
2021/06/14 06:41:51;;;;;;;5.03;3.17;;;16.30;99.90;;;;;;5012019;28;20102;-72
2021/06/14 06:44:16;;;;;;;5.60;2.00;;;16.40;99.90;;;;;;5008192;28;20181;-72
2021/06/14 06:46:42;;;;;;;4.75;2.05;;;16.60;99.90;;;;;;4998218;28;20572;-72
2021/06/14 06:49:08;;;;;;;3.42;2.28;;;16.60;99.90;;;;;;5010827;28;20465;-72
2021/06/14 06:51:33;;;;;;;5.05;2.40;;;16.70;99.90;;;;;;5011563;28;20100;-72
2021/06/14 06:54:11;;;;;;;3.97;2.40;;;16.80;99.90;;;;;;4993831;28;20093;-72
2021/06/14 06:56:42;;;;;;;5.38;2.65;;;16.90;99.90;;;;;;5023575;28;20112;-72
2021/06/14 06:59:07;;;;;;;3.58;2.47;;;16.80;99.90;;;;;;4995167;28;20086;-73
2021/06/14 07:01:33;;;;;;;4.85;2.22;;;16.80;99.90;;;;;;5010992;28;20081;-73
2021/06/14 07:03:59;;;;;;;3.03;2.03;;;16.90;99.90;;;;;;5013129;28;20113;-73
2021/06/14 07:06:24;;;;;;;4.93;2.42;;;17.00;99.90;;;;;;5012372;28;20721;-73
2021/06/14 07:08:50;;;;;;;7.20;2.40;;;16.90;99.90;;;;;;5011760;28;20148;-73
2021/06/14 07:11:15;;;;;;;4.35;2.03;;;17.00;99.90;;;;;;5011659;28;20546;-72
2021/06/14 07:13:41;;;;;;;7.80;2.38;;;17.00;99.90;;;;;;5010610;28;20075;-73
2021/06/14 07:16:06;;;;;;;6.50;2.05;;;16.90;99.90;;;;;;4997520;28;21041;-73
2021/06/14 07:18:32;;;;;;;5.07;2.47;;;17.10;99.90;;;;;;5003541;28;20137;-72
2021/06/14 07:20:59;;;;;;;5.13;2.45;;;17.20;99.90;;;;;;4998990;28;20087;-72
2021/06/14 07:23:25;;;;;;;4.70;2.38;;;17.40;99.90;;;;;;5010394;28;20470;-72
2021/06/14 07:25:51;;;;;;;6.07;2.40;;;17.60;99.90;;;;;;5015983;28;20098;-73
2021/06/14 07:28:16;;;;;;;3.85;2.50;;;17.60;99.90;;;;;;5029083;28;20511;-72
2021/06/14 07:30:42;;;;;;;4.30;2.40;;;17.50;99.90;;;;;;5030957;28;20073;-73
2021/06/14 07:33:08;;;;;;;4.88;2.38;;;17.60;99.90;;;;;;5028971;28;20078;-73
2021/06/14 07:35:37;;;;;;;6.15;2.47;;;17.50;99.90;;;;;;5007491;28;20085;-72
2021/06/14 07:38:06;;;;;;;10.00;2.47;;;17.50;99.90;;;;;;5013817;28;20082;-71
2021/06/14 07:40:32;;;;;;;5.88;2.65;;;17.50;99.90;;;;;;5009811;28;20074;-71
2021/06/14 07:42:58;;;;;;;6.45;2.40;;;17.50;99.90;;;;;;5008497;28;20074;-71
2021/06/14 07:45:25;;;;;;;3.92;2.42;;;17.40;99.90;;;;;;5013829;28;20198;-71
2021/06/14 07:47:54;;;;;;;4.85;2.50;;;17.70;99.90;;;;;;5013309;28;20085;-72
2021/06/14 07:50:20;;;;;;;5.75;1.77;;;17.60;99.90;;;;;;5005759;28;20543;-71
2021/06/14 07:52:45;;;;;;;5.15;2.30;;;17.80;99.90;;;;;;5010116;28;20078;-72
2021/06/14 07:55:14;;;;;;;5.70;2.45;;;18.00;99.90;;;;;;5010375;28;20144;-72
2021/06/14 07:57:40;;;;;;;4.30;2.38;;;18.10;99.90;;;;;;5015324;28;20078;-72
2021/06/14 08:00:08;;;;;;;5.32;2.85;;;18.00;99.90;;;;;;5009850;28;20075;-72
2021/06/14 08:02:35;;;;;;;8.57;2.67;;;17.90;99.90;;;;;;5009215;28;20489;-72
2021/06/14 08:05:07;;;;;;;5.45;3.30;;;18.00;99.90;;;;;;5091436;27;20209;-74
2021/06/14 08:07:34;;;;;;;4.70;2.63;;;18.00;99.90;;;;;;5073466;28;20156;-73
2021/06/14 08:10:04;;;;;;;6.10;2.38;;;18.20;99.90;;;;;;5066437;28;20238;-73
2021/06/14 08:12:32;;;;;;;3.55;1.75;;;18.20;99.90;;;;;;5066236;28;20559;-73
2021/06/14 08:14:57;;;;;;;5.30;2.60;;;18.60;99.90;;;;;;5069102;28;20104;-74
2021/06/14 08:17:23;;;;;;;5.97;2.33;;;18.80;99.90;;;;;;5037885;28;20085;-73
2021/06/14 08:20:04;;;;;;;5.97;2.80;;;18.90;99.90;;;;;;5062872;28;20088;-74
2021/06/14 08:25:09;;;;;;;3.95;2.50;;;18.80;99.90;;;;;;5078394;28;20184;-74
2021/06/14 08:27:43;;;;;;;5.45;2.60;;;18.60;99.90;;;;;;5070866;28;20103;-73
2021/06/14 08:30:12;;;;;;;3.63;2.15;;;18.70;99.90;;;;;;5067482;28;20156;-73
2021/06/14 08:32:38;;;;;;;3.00;1.92;;;18.70;99.90;;;;;;5078714;28;20100;-73
2021/06/14 08:35:06;;;;;;;6.93;2.60;;;18.70;99.90;;;;;;5065679;28;20117;-73
2021/06/14 08:37:31;;;;;;;5.53;3.22;;;18.80;99.90;;;;;;5068081;28;20070;-73
2021/06/14 08:39:57;;;;;;;4.63;2.47;;;18.80;99.90;;;;;;5076322;28;20685;-73
2021/06/14 08:42:22;;;;;;;5.75;2.45;;;18.80;99.90;;;;;;5066964;28;20107;-73
2021/06/14 08:44:48;;;;;;;6.35;2.40;;;18.90;99.90;;;;;;5056170;28;20093;-73
2021/06/14 08:47:15;;;;;;;8.25;2.78;;;18.70;99.90;;;;;;5066415;28;20557;-73
2021/06/14 08:49:42;;;;;;;5.85;2.95;;;18.90;99.90;;;;;;5059513;28;20097;-74
2021/06/14 08:52:08;;;;;;;6.35;2.42;;;18.90;99.90;;;;;;5065487;28;20598;-73
2021/06/14 08:54:37;;;;;;;5.50;2.40;;;19.10;99.90;;;;;;5065351;28;20093;-73
2021/06/14 08:57:04;;;;;;;6.88;2.60;;;19.20;99.90;;;;;;5072266;28;20069;-73
2021/06/14 08:59:29;;;;;;;3.85;2.08;;;19.40;99.90;;;;;;5067290;28;21388;-73
2021/06/14 09:01:55;;;;;;;5.00;2.30;;;19.20;99.90;;;;;;5064042;28;20164;-73
2021/06/14 09:04:21;;;;;;;3.13;2.55;;;19.50;99.90;;;;;;5064823;28;20613;-73
2021/06/14 09:06:47;;;;;;;6.57;2.88;;;19.30;99.90;;;;;;5073802;28;20091;-73
2021/06/14 09:09:13;;;;;;;5.97;3.17;;;19.30;99.90;;;;;;5070500;28;20157;-73
2021/06/14 09:11:51;;;;;;;7.85;3.13;;;19.20;99.90;;;;;;5069336;28;20567;-73
2021/06/14 09:14:20;;;;;;;4.53;2.65;;;19.10;99.90;;;;;;5070987;28;20092;-74
2021/06/14 09:16:46;;;;;;;6.38;2.63;;;19.10;99.90;;;;;;5056079;28;20131;-73
2021/06/14 09:19:27;;;;;;;6.75;2.67;;;19.20;99.90;;;;;;5064468;28;20085;-73
2021/06/14 09:21:56;;;;;;;6.00;2.70;;;19.30;99.90;;;;;;5051829;28;20187;-73
2021/06/14 09:24:25;;;;;;;6.22;2.60;;;19.40;99.90;;;;;;5066097;28;20702;-73
2021/06/14 09:26:52;;;;;;;7.07;2.67;;;19.50;99.90;;;;;;5054506;28;20101;-73
2021/06/14 09:29:26;;;;;;;4.07;3.03;;;19.50;99.90;;;;;;5058807;28;20689;-73
2021/06/14 09:31:58;;;;;;;7.85;2.60;;;19.40;99.90;;;;;;5073966;28;20069;-75
2021/06/14 09:34:39;;;;;;;5.57;2.67;;;19.40;99.90;;;;;;5056651;28;20123;-74
2021/06/14 09:37:07;;;;;;;3.75;2.50;;;19.40;99.90;;;;;;5063517;28;20074;-74
2021/06/14 09:39:47;;;;;;;5.22;2.78;;;19.60;99.90;;;;;;5060241;28;20476;-74
2021/06/14 09:42:15;;;;;;;6.22;2.55;;;19.70;99.90;;;;;;5050803;28;20710;-75
2021/06/14 09:44:41;;;;;;;5.70;2.55;;;19.60;99.90;;;;;;5057988;28;20105;-73
2021/06/14 09:47:09;;;;;;;4.43;2.40;;;19.60;99.90;;;;;;5048725;28;20873;-73
2021/06/14 09:49:36;;;;;;;5.15;2.05;;;19.60;99.90;;;;;;5062785;28;20601;-73
2021/06/14 09:52:03;;;;;;;5.53;2.50;;;19.60;99.90;;;;;;5052333;28;20554;-75
2021/06/14 09:54:34;;;;;;;4.57;2.35;;;19.60;99.70;;;;;;5051471;28;20488;-74
2021/06/14 09:57:04;;;;;;;7.57;2.40;;;19.50;99.90;;;;;;5065731;28;20573;-73
2021/06/14 09:59:40;;;;;;;4.68;2.38;;;19.80;99.90;;;;;;5050632;28;20084;-73
2021/06/14 10:02:07;;;;;;;2.80;2.08;;;19.80;99.10;;;;;;5069375;28;20083;-74
2021/06/14 10:04:33;;;;;;;4.75;2.50;;;19.90;99.30;;;;;;5051946;28;20096;-73
2021/06/14 10:07:09;;;;;;;5.43;1.98;;;19.90;99.60;;;;;;5053904;28;20625;-73
2021/06/14 10:09:40;;;;;;;4.78;2.47;;;20.20;99.90;;;;;;5065972;28;20077;-73
2021/06/14 10:12:25;;;;;;;4.68;2.17;;;20.00;99.20;;;;;;5050236;28;20092;-73
2021/06/14 10:14:57;;;;;;;11.18;3.08;;;20.00;99.10;;;;;;5052651;28;20591;-73
2021/06/14 10:17:31;;;;;;;6.05;2.30;;;20.30;99.70;;;;;;5049420;28;20444;-74
2021/06/14 10:20:13;;;;;;;4.68;2.38;;;20.30;98.90;;;;;;5050792;28;20081;-73
2021/06/14 10:22:40;;;;;;;3.25;2.08;;;20.10;97.60;;;;;;5045871;28;20089;-73
2021/06/14 10:25:07;;;;;;;5.32;2.20;;;20.20;98.10;;;;;;5053608;28;20113;-76
2021/06/14 10:27:33;;;;;;;4.68;1.73;;;20.20;97.40;;;;;;5050762;28;20085;-73
2021/06/14 10:30:00;;;;;;;6.38;2.00;;;20.30;96.90;;;;;;5070004;28;20085;-74
2021/06/14 10:32:26;;;;;;;4.25;1.80;;;20.30;96.70;;;;;;5059607;28;20115;-74
2021/06/14 10:34:53;;;;;;;3.63;2.13;;;20.30;97.50;;;;;;5051657;28;20540;-74
2021/06/14 10:37:21;;;;;;;4.35;2.10;;;20.30;96.90;;;;;;5049162;28;20112;-74
2021/06/14 10:39:52;;;;;;;4.20;2.25;;;20.20;98.50;;;;;;5050167;28;20433;-74
2021/06/14 10:42:18;;;;;;;5.25;1.90;;;20.40;97.70;;;;;;5065214;28;20085;-74
2021/06/14 10:44:44;;;;;;;8.25;2.10;;;20.70;96.90;;;;;;5052562;28;20105;-74
2021/06/14 10:47:10;;;;;;;4.25;2.08;;;20.90;99.00;;;;;;5055521;28;20617;-75
2021/06/14 10:49:37;;;;;;;3.22;1.60;;;21.10;98.50;;;;;;5057378;28;20974;-74
2021/06/14 10:52:04;;;;;;;5.57;2.15;;;20.90;97.10;;;;;;5052427;28;20081;-74
2021/06/14 10:54:44;;;;;;;3.47;2.25;;;20.90;97.10;;;;;;5050195;28;20614;-74
2021/06/14 10:57:11;;;;;;;3.03;1.77;;;20.70;97.00;;;;;;5066677;28;20091;-74
2021/06/14 10:59:39;;;;;;;3.28;2.10;;;20.80;98.70;;;;;;5053312;28;20073;-74
2021/06/14 11:02:08;;;;;;;6.05;2.10;;;20.90;97.50;;;;;;5057131;28;20455;-74
2021/06/14 11:04:34;;;;;;;3.65;2.10;;;21.10;97.00;;;;;;5049002;28;20147;-74
2021/06/14 11:07:00;;;;;;;6.30;2.45;;;21.10;96.60;;;;;;5051258;28;20077;-74
2021/06/14 11:09:44;;;;;;;4.22;2.20;;;20.90;95.60;;;;;;5058530;28;20156;-74
2021/06/14 11:12:22;;;;;;;2.40;1.70;;;21.10;97.80;;;;;;5049094;28;20066;-74
2021/06/14 11:14:48;;;;;;;5.45;1.92;;;21.10;96.70;;;;;;5057427;28;20190;-74
2021/06/14 11:17:22;;;;;;;4.32;2.40;;;21.10;96.20;;;;;;5046829;28;20687;-74
2021/06/14 11:20:00;;;;;;;5.75;2.30;;;21.20;99.00;;;;;;5063366;28;20209;-74
2021/06/14 11:22:55;;;;;;;3.47;1.80;;;21.50;95.60;;;;;;5069874;28;20076;-74
2021/06/14 11:25:25;;;;;;;;;;;21.50;94.80;;;;;;5048191;28;20119;-74
2021/06/14 11:27:51;;;;;;;5.18;2.35;;;21.10;94.70;;;;;;5066088;28;19969;-75
2021/06/14 11:30:24;;;;;;;3.60;2.08;;;21.00;94.60;;;;;;5071334;28;20466;-74
2021/06/14 11:32:50;;;;;;;4.80;1.98;;;21.00;95.20;;;;;;5073142;28;20080;-75
2021/06/14 11:35:17;;;;;;;5.50;1.85;;;21.10;94.80;;;;;;5062920;28;20097;-75
2021/06/14 11:37:45;;;;;;;5.45;2.15;;;21.20;96.20;;;;;;5066107;28;20530;-76
2021/06/14 11:40:13;;;;;;;5.72;2.03;;;21.30;95.40;;;;;;5065825;28;20081;-75
2021/06/14 11:42:46;;;;;;;3.95;1.92;;;21.20;95.40;;;;;;5064179;28;20070;-78
2021/06/14 11:45:28;;;;;;;5.85;1.85;;;21.30;95.20;;;;;;5052889;28;20116;-76
2021/06/14 11:47:54;;;;;;;3.53;1.58;;;21.30;94.80;;;;;;5066115;28;20116;-73
2021/06/14 11:50:22;;;;;;;7.53;2.20;;;21.30;94.70;;;;;;5055384;28;20070;-73
2021/06/14 11:52:56;;;;;;;2.42;1.60;;;21.10;94.00;;;;;;5050103;28;20077;-74
2021/06/14 11:55:22;;;;;;;;;;;21.10;94.40;;;;;;5051698;28;20547;-74
2021/06/14 11:57:55;;;;;;;2.83;1.40;;;21.40;94.90;;;;;;5055433;28;19976;-73
2021/06/14 12:00:41;;;;;;;5.20;2.10;;;21.40;94.20;;;;;;5065918;28;20080;-72
2021/06/14 12:03:22;;;;;;;2.83;1.55;;;21.30;93.30;;;;;;5054880;28;20104;-74
2021/06/14 12:05:50;;;;;;;3.00;1.45;;;21.50;93.00;;;;;;5064336;28;20610;-72
2021/06/14 12:08:18;;;;;;;4.53;1.77;;;21.50;92.80;;;;;;5051500;28;20542;-72
2021/06/14 12:10:44;;;;;;;3.47;1.45;;;21.50;93.60;;;;;;5055802;28;20078;-73
2021/06/14 12:13:12;;;;;;;3.47;1.45;;;21.70;92.90;;;;;;5047929;28;20077;-72
2021/06/14 12:15:39;;;;;;;3.15;1.73;;;21.60;92.30;;;;;;5059809;28;20449;-73
2021/06/14 12:18:06;;;;;;;2.72;1.52;;;21.60;92.40;;;;;;5048192;28;20541;-73
2021/06/14 12:20:35;;;;;;;3.88;1.83;;;21.70;92.40;;;;;;5069122;28;20612;-73
2021/06/14 12:23:09;;;;;;;2.75;1.77;;;21.70;92.90;;;;;;5069077;28;20069;-73
2021/06/14 12:25:49;;;;;;;3.25;1.52;;;21.50;93.20;;;;;;5066907;28;20092;-74
2021/06/14 12:28:18;;;;;;;5.63;1.80;;;21.50;91.90;;;;;;5068697;28;20065;-72
2021/06/14 12:30:49;;;;;;;3.50;1.30;;;21.50;91.70;;;;;;5069191;28;20934;-72
2021/06/14 12:33:30;;;;;;;1.80;1.52;;;21.80;92.10;;;;;;5062670;28;20485;-73
2021/06/14 12:35:57;;;;;;;3.20;1.38;;;21.60;91.40;;;;;;5048317;28;20486;-73
2021/06/14 12:38:24;;;;;;;5.10;1.40;;;22.00;93.80;;;;;;5052414;28;20127;-73
2021/06/14 12:40:50;;;;;;;3.17;1.15;;;21.80;90.80;;;;;;5054899;28;20081;-75
2021/06/14 12:43:16;;;;;;;3.55;1.30;;;21.90;91.70;;;;;;5055368;28;20449;-75
2021/06/14 12:45:43;;;;;;;3.58;1.30;;;21.80;90.30;;;;;;5049127;28;20154;-72
2021/06/14 12:48:15;;;;;;;2.65;1.50;;;21.80;90.10;;;;;;5051736;28;20077;-75
2021/06/14 12:50:48;;;;;;;1.92;1.25;;;21.80;88.10;;;;;;5070612;28;20465;-71
2021/06/14 12:53:22;;;;;;;5.93;1.50;;;21.80;89.20;;;;;;5063091;28;20077;-74
2021/06/14 12:55:51;;;;;;;3.25;1.40;;;21.90;90.50;;;;;;5065401;28;20100;-75
2021/06/14 12:58:21;;;;;;;3.83;1.60;;;22.00;89.60;;;;;;5067117;28;20585;-76